TimeEDT,TemperatureF,Dew PointF,Humidity,Sea Level PressureIn,VisibilityMPH,Wind Direction,Wind SpeedMPH,Gust SpeedMPH,PrecipitationIn,Events,Conditions,WindDirDegrees,DateUTC
12:10 AM,66.2,44.6,46,29.71,10.0,South,12.7,-,0.00,,Clear,170,2014-04-14 04:10:00
12:30 AM,64.4,44.6,49,29.70,10.0,South,12.7,-,0.00,,Clear,170,2014-04-14 04:30:00
12:50 AM,64.4,44.6,49,29.70,10.0,South,13.8,-,0.00,,Clear,170,2014-04-14 04:50:00
1:10 AM,66.2,46.4,49,29.69,10.0,South,13.8,-,0.00,,Clear,170,2014-04-14 05:10:00
1:30 AM,66.2,46.4,49,29.68,10.0,South,16.1,-,0.00,,Clear,180,2014-04-14 05:30:00
1:50 AM,68.0,48.2,49,29.67,10.0,South,18.4,24.2,0.00,,Clear,180,2014-04-14 05:50:00
2:10 AM,68.0,48.2,49,29.66,10.0,South,16.1,-,0.00,,Clear,180,2014-04-14 06:10:00
2:30 AM,66.2,50.0,56,29.65,10.0,South,15.0,23.0,0.00,,Clear,180,2014-04-14 06:30:00
2:50 AM,66.2,51.8,60,29.64,10.0,South,13.8,23.0,0.00,,Clear,180,2014-04-14 06:50:00
3:10 AM,66.2,51.8,60,29.63,10.0,South,17.3,25.3,0.00,,Clear,180,2014-04-14 07:10:00
3:30 AM,68.0,51.8,56,29.63,10.0,South,19.6,27.6,0.00,,Clear,180,2014-04-14 07:30:00
3:50 AM,68.0,51.8,56,29.63,10.0,South,19.6,31.1,0.00,,Clear,180,2014-04-14 07:50:00
4:10 AM,68.0,51.8,56,29.62,10.0,South,19.6,27.6,0.00,,Clear,180,2014-04-14 08:10:00
4:30 AM,68.0,51.8,56,29.61,10.0,South,19.6,29.9,0.00,,Partly Cloudy,180,2014-04-14 08:30:00
4:50 AM,68.0,51.8,56,29.60,10.0,South,25.3,32.2,0.00,,Clear,180,2014-04-14 08:50:00
5:10 AM,69.8,51.8,53,29.59,10.0,South,26.5,33.4,0.00,,Partly Cloudy,180,2014-04-14 09:10:00
5:30 AM,69.8,51.8,53,29.58,10.0,South,24.2,31.1,0.00,,Mostly Cloudy,190,2014-04-14 09:30:00
5:50 AM,69.8,51.8,53,29.57,10.0,South,25.3,38.0,0.00,,Mostly Cloudy,190,2014-04-14 09:50:00
6:10 AM,68.0,51.8,56,29.56,10.0,South,23.0,38.0,0.00,,Scattered Clouds,190,2014-04-14 10:10:00
6:30 AM,68.0,51.8,56,29.57,10.0,South,31.1,43.7,0.00,,Clear,190,2014-04-14 10:30:00
6:50 AM,66.2,53.6,64,29.58,10.0,South,29.9,42.6,0.00,,Clear,190,2014-04-14 10:50:00
7:10 AM,64.4,53.6,68,29.60,10.0,South,27.6,40.3,0.00,,Clear,190,2014-04-14 11:10:00
7:30 AM,62.6,55.4,77,29.62,9.0,SSW,24.2,47.2,0.00,,Clear,200,2014-04-14 11:30:00
7:50 AM,62.6,55.4,77,29.62,10.0,South,24.2,36.8,0.00,,Clear,190,2014-04-14 11:50:00
8:10 AM,62.6,55.4,77,29.62,10.0,SSW,28.8,34.5,0.00,,Scattered Clouds,200,2014-04-14 12:10:00
8:30 AM,62.6,55.4,77,29.62,10.0,SSW,20.7,32.2,0.00,,Partly Cloudy,200,2014-04-14 12:30:00
8:50 AM,62.6,55.4,77,29.63,10.0,SSW,23.0,27.6,0.00,,Mostly Cloudy,200,2014-04-14 12:50:00
9:10 AM,60.8,57.2,88,29.62,10.0,SSW,20.7,26.5,0.00,,Overcast,200,2014-04-14 13:10:00
9:30 AM,60.8,59.0,94,29.62,2.0,SSW,25.3,31.1,0.00,,Overcast,200,2014-04-14 13:30:00
9:50 AM,60.8,60.8,100,29.62,10.0,South,16.1,21.9,0.00,,Mostly Cloudy,190,2014-04-14 13:50:00
10:10 AM,60.8,60.8,100,29.62,8.0,South,18.4,27.6,0.00,,Overcast,190,2014-04-14 14:10:00
10:30 AM,60.8,60.8,100,29.62,5.0,SSW,23.0,29.9,0.02,,Overcast,200,2014-04-14 14:30:00
10:50 AM,60.8,60.8,100,29.63,5.0,SSW,20.7,31.1,0.02,,Overcast,200,2014-04-14 14:50:00
11:10 AM,60.8,60.8,100,29.64,5.0,SSW,21.9,31.1,0.00,,Overcast,210,2014-04-14 15:10:00
11:30 AM,60.8,60.8,100,29.64,10.0,SSW,25.3,35.7,0.00,,Overcast,210,2014-04-14 15:30:00
11:50 AM,60.8,60.8,100,29.64,10.0,SSW,24.2,33.4,0.00,,Overcast,210,2014-04-14 15:50:00
12:10 PM,62.6,60.8,94,29.64,10.0,SSW,16.1,28.8,0.00,,Mostly Cloudy,210,2014-04-14 16:10:00
12:30 PM,60.8,60.8,100,29.64,10.0,SSW,18.4,-,0.00,,Overcast,200,2014-04-14 16:30:00
12:50 PM,60.8,60.8,100,29.64,5.0,SSW,23.0,28.8,0.00,,Overcast,200,2014-04-14 16:50:00
1:10 PM,62.6,59.0,88,29.64,10.0,SSW,18.4,26.5,0.00,,Mostly Cloudy,200,2014-04-14 17:10:00
1:30 PM,62.6,59.0,88,29.64,5.0,SSW,18.4,28.8,0.00,,Overcast,210,2014-04-14 17:30:00
1:50 PM,60.8,60.8,100,29.65,3.0,WSW,15.0,21.9,0.02,,Overcast,250,2014-04-14 17:50:00
2:10 PM,60.8,60.8,100,29.64,3.0,SW,19.6,24.2,0.04,,Overcast,230,2014-04-14 18:10:00
2:30 PM,60.8,60.8,100,29.64,10.0,SW,13.8,-,0.05,,Mostly Cloudy,230,2014-04-14 18:30:00
2:50 PM,62.6,60.8,94,29.64,10.0,SSW,16.1,-,0.05,,Mostly Cloudy,210,2014-04-14 18:50:00
3:10 PM,62.6,59.0,88,29.64,10.0,SSW,11.5,-,0.00,,Overcast,210,2014-04-14 19:10:00
3:30 PM,57.2,57.2,100,29.65,10.0,WNW,10.4,20.7,0.00,,Overcast,290,2014-04-14 19:30:00
3:50 PM,55.4,55.4,100,29.67,10.0,West,10.4,-,0.00,,Overcast,280,2014-04-14 19:50:00
4:10 PM,53.6,53.6,100,29.68,8.0,West,12.7,18.4,0.00,,Overcast,280,2014-04-14 20:10:00
4:30 PM,51.8,51.8,100,29.68,9.0,WNW,15.0,20.7,0.00,,Overcast,300,2014-04-14 20:30:00
4:50 PM,50.0,50.0,100,29.69,10.0,NW,12.7,20.7,0.00,,Overcast,310,2014-04-14 20:50:00
5:10 PM,48.2,48.2,100,29.69,10.0,WNW,9.2,16.1,0.00,,Overcast,290,2014-04-14 21:10:00
5:30 PM,48.2,48.2,100,29.69,10.0,West,9.2,-,0.00,,Overcast,280,2014-04-14 21:30:00
5:50 PM,48.2,46.4,93,29.69,10.0,WNW,10.4,16.1,0.00,,Overcast,300,2014-04-14 21:50:00
6:10 PM,48.2,46.4,93,29.69,10.0,WNW,8.1,-,0.00,,Overcast,300,2014-04-14 22:10:00
6:30 PM,46.4,44.6,93,29.69,10.0,WNW,6.9,-,0.00,,Overcast,290,2014-04-14 22:30:00
6:50 PM,46.4,44.6,93,29.68,10.0,NW,6.9,-,0.00,,Overcast,320,2014-04-14 22:50:00
7:10 PM,46.4,44.6,93,29.69,10.0,WNW,6.9,-,0.00,,Overcast,300,2014-04-14 23:10:00
7:30 PM,46.4,44.6,93,29.70,10.0,NW,5.8,-,0.00,,Overcast,310,2014-04-14 23:30:00
7:50 PM,44.6,44.6,100,29.71,10.0,WNW,11.5,-,0.00,,Overcast,300,2014-04-14 23:50:00
8:10 PM,44.6,42.8,93,29.70,10.0,WNW,6.9,-,0.00,,Overcast,300,2014-04-15 00:10:00
8:30 PM,44.6,44.6,100,29.70,9.0,NW,6.9,-,0.00,,Overcast,310,2014-04-15 00:30:00
8:50 PM,42.8,42.8,100,29.72,9.0,WNW,12.7,-,0.00,,Overcast,300,2014-04-15 00:50:00
9:10 PM,42.8,42.8,100,29.72,7.0,WNW,12.7,16.1,0.00,,Overcast,300,2014-04-15 01:10:00
9:30 PM,42.8,42.8,100,29.71,2.0,NW,10.4,-,0.00,,Overcast,320,2014-04-15 01:30:00
9:50 PM,41.0,41.0,100,29.72,5.0,WNW,13.8,19.6,0.00,,Overcast,290,2014-04-15 01:50:00
10:10 PM,39.2,39.2,100,29.74,3.0,WNW,11.5,-,0.03,,Overcast,300,2014-04-15 02:10:00
10:30 PM,37.4,37.4,100,29.74,3.0,NW,15.0,21.9,0.08,,Overcast,310,2014-04-15 02:30:00
10:50 PM,37.4,37.4,100,29.74,5.0,WNW,10.4,-,0.10,,Overcast,290,2014-04-15 02:50:00
11:10 PM,37.4,37.4,100,29.73,6.0,WNW,16.1,-,0.01,,Overcast,300,2014-04-15 03:10:00
11:30 PM,37.4,37.4,100,29.75,5.0,WNW,15.0,-,0.01,,Overcast,300,2014-04-15 03:30:00
11:50 PM,35.6,35.6,100,29.74,4.0,WNW,18.4,24.2,0.03,,Overcast,300,2014-04-15 03:50:00